Time;durP1;ratioP1;P1;durP2;ratioP2;P2;SDS_P1;SDS_P2;PMS_P1;PMS_P2;Temp;Humidity;BMP_temperature;BMP_pressure;BME280_temperature;BME280_humidity;BME280_pressure;Samples;Min_cycle;Max_cycle;Signal;HPM_P1;HPM_P2
2021/12/07 00:00:18;;;;;;;66.78;35.40;;;;;;;-0.51;100.00;100333.94;5121915;27;20112;-74
2021/12/07 00:02:44;;;;;;;61.05;34.28;;;;;;;-0.49;100.00;100331.41;5125025;27;20111;-70
2021/12/07 00:05:10;;;;;;;60.00;33.95;;;;;;;-0.49;100.00;100337.47;5122749;27;20482;-74
2021/12/07 00:07:35;;;;;;;61.28;35.15;;;;;;;-0.48;100.00;100334.06;5124001;27;20027;-70
2021/12/07 00:10:01;;;;;;;71.13;36.00;;;;;;;-0.48;100.00;100336.66;5123749;27;20023;-74
2021/12/07 00:12:34;;;;;;;65.47;37.50;;;;;;;-0.47;100.00;100345.31;5122947;27;20383;-70
2021/12/07 00:15:02;;;;;;;70.45;38.83;;;;;;;-0.44;100.00;100346.31;5123714;27;20408;-70
2021/12/07 00:17:29;;;;;;;70.60;37.38;;;;;;;-0.45;100.00;100343.66;5122639;27;20133;-69
2021/12/07 00:19:54;;;;;;;70.25;38.90;;;;;;;-0.40;100.00;100350.81;5124574;27;20023;-73
2021/12/07 00:22:20;;;;;;;74.50;38.65;;;;;;;-0.36;100.00;100354.44;5121929;28;20024;-68
2021/12/07 00:24:45;;;;;;;79.18;39.47;;;;;;;-0.33;100.00;100351.09;5125882;28;20043;-69
2021/12/07 00:27:11;;;;;;;76.03;42.03;;;;;;;-0.28;100.00;100357.34;5123502;28;20020;-69
2021/12/07 00:29:36;;;;;;;79.43;41.70;;;;;;;-0.26;100.00;100354.00;5124733;28;20016;-69
2021/12/07 00:32:17;;;;;;;83.38;42.90;;;;;;;-0.19;100.00;100357.72;5124566;28;20051;-69
2021/12/07 00:37:36;;;;;;;86.80;43.83;;;;;;;-0.15;100.00;100364.81;5021332;28;20062;-69
2021/12/07 00:40:04;;;;;;;87.20;44.30;;;;;;;-0.07;100.00;100367.72;5033699;28;20042;-71
2021/12/07 00:42:30;;;;;;;93.15;47.10;;;;;;;-0.01;100.00;100371.44;5033852;28;20038;-71
2021/12/07 00:44:55;;;;;;;91.70;45.55;;;;;;;0.12;100.00;100375.41;5035380;28;20038;-69
2021/12/07 00:47:21;;;;;;;104.13;50.40;;;;;;;0.18;100.00;100379.97;5035812;28;20026;-71
2021/12/07 00:49:46;;;;;;;96.60;47.65;;;;;;;0.23;100.00;100381.00;5036062;28;20077;-70
2021/12/07 00:52:12;;;;;;;101.97;49.10;;;;;;;0.35;100.00;100388.44;5035663;28;20014;-69
2021/12/07 00:54:38;;;;;;;106.25;50.05;;;;;;;0.42;100.00;100397.34;5031023;28;20110;-69
2021/12/07 00:57:04;;;;;;;111.55;51.45;;;;;;;0.46;100.00;100401.84;5014522;28;20432;-70
2021/12/07 00:59:31;;;;;;;105.38;48.78;;;;;;;0.51;100.00;100401.19;5014597;28;20022;-69
2021/12/07 01:01:57;;;;;;;114.65;49.53;;;;;;;0.65;100.00;100403.41;5014385;28;20041;-68
2021/12/07 01:04:24;;;;;;;102.80;51.40;;;;;;;0.75;100.00;100409.84;5014009;28;20128;-69
2021/12/07 01:25:52;;;;;;;84.93;43.08;;;;;;;1.26;100.00;100455.97;5121168;27;20070;-72
2021/12/07 01:30:55;;;;;;;87.78;43.88;;;;;;;1.28;100.00;100460.41;5128023;27;20167;-70
2021/12/07 01:41:30;;;;;;;79.47;39.08;;;;;;;1.25;100.00;100473.28;5120774;27;20036;-72
2021/12/07 01:57:53;;;;;;;65.50;31.42;;;;;;;1.38;100.00;100493.75;5004029;28;20097;-70
2021/12/07 02:00:22;;;;;;;60.55;30.40;;;;;;;1.39;100.00;100490.28;5001769;28;20042;-69
2021/12/07 02:02:47;;;;;;;62.33;29.52;;;;;;;1.39;100.00;100492.91;5001555;28;20085;-71
2021/12/07 02:05:13;;;;;;;66.65;28.08;;;;;;;1.39;100.00;100498.09;5004562;28;20448;-74
2021/12/07 02:07:39;;;;;;;58.55;26.13;;;;;;;1.45;100.00;100507.00;5002393;28;20064;-70
2021/12/07 02:10:11;;;;;;;57.63;25.10;;;;;;;1.45;100.00;100507.88;5003297;28;20142;-69
2021/12/07 02:12:48;;;;;;;56.67;24.30;;;;;;;1.46;100.00;100516.59;5002829;28;20030;-70
2021/12/07 02:15:18;;;;;;;54.00;22.88;;;;;;;1.47;100.00;100515.72;5004594;28;20037;-75
2021/12/07 02:17:44;;;;;;;47.80;21.13;;;;;;;1.50;100.00;100521.97;5001502;28;20106;-71
2021/12/07 02:20:12;;;;;;;49.63;20.05;;;;;;;1.58;100.00;100527.44;5003671;28;20121;-75
2021/12/07 02:22:37;;;;;;;44.70;17.95;;;;;;;1.59;100.00;100530.91;5034288;27;20036;-71
2021/12/07 02:25:05;;;;;;;46.13;17.88;;;;;;;1.59;100.00;100529.22;5106667;27;20047;-70
2021/12/07 02:27:30;;;;;;;49.15;18.10;;;;;;;1.61;100.00;100537.97;5124590;27;20024;-73
2021/12/07 02:29:56;;;;;;;42.80;16.02;;;;;;;1.59;100.00;100539.63;5126508;27;20023;-71
2021/12/07 02:32:21;;;;;;;47.47;15.60;;;;;;;1.59;100.00;100539.63;5123096;27;20080;-70
2021/12/07 02:34:56;;;;;;;41.83;13.98;;;;;;;1.54;100.00;100536.88;5119022;27;20035;-68
2021/12/07 02:37:22;;;;;;;36.45;13.50;;;;;;;1.61;100.00;100545.78;5120146;27;20110;-68
2021/12/07 02:39:48;;;;;;;42.78;13.57;;;;;;;1.56;100.00;100549.97;5119260;27;20020;-67
2021/12/07 02:42:15;;;;;;;42.00;12.90;;;;;;;1.63;100.00;100559.78;5126350;27;20378;-69
2021/12/07 02:44:40;;;;;;;37.95;11.68;;;;;;;1.59;100.00;100555.28;5124126;27;20023;-68
2021/12/07 02:47:06;;;;;;;41.25;11.85;;;;;;;1.58;100.00;100557.81;5125039;27;20032;-68
2021/12/07 02:49:31;;;;;;;38.58;11.77;;;;;;;1.52;100.00;100568.91;5125409;27;20517;-68
2021/12/07 02:51:57;;;;;;;40.20;10.68;;;;;;;1.47;100.00;100567.84;5124011;27;20020;-69
2021/12/07 02:54:22;;;;;;;40.13;11.43;;;;;;;1.46;100.00;100573.91;5126236;27;20027;-69
2021/12/07 02:56:50;;;;;;;42.45;11.18;;;;;;;1.43;100.00;100579.88;5122958;27;20062;-69
2021/12/07 02:59:17;;;;;;;40.75;11.10;;;;;;;1.38;100.00;100578.81;5126642;27;20023;-68
2021/12/07 03:01:47;;;;;;;43.65;11.73;;;;;;;1.42;100.00;100579.81;5123257;27;20058;-69
2021/12/07 03:04:20;;;;;;;40.72;11.73;;;;;;;1.36;100.00;100586.56;5125408;27;20039;-69
2021/12/07 03:09:54;;;;;;;36.55;10.85;;;;;;;1.32;100.00;100595.09;5126098;27;20038;-68
2021/12/07 03:26:02;;;;;;;38.97;10.50;;;;;;;1.24;100.00;100606.94;5123155;27;20058;-73
2021/12/07 03:28:29;;;;;;;40.45;10.40;;;;;;;1.14;100.00;100613.50;5120794;27;20020;-75
2021/12/07 03:30:55;;;;;;;39.42;10.93;;;;;;;1.15;100.00;100614.38;5125256;27;20064;-75
2021/12/07 03:33:20;;;;;;;39.30;10.60;;;;;;;1.16;100.00;100610.97;5122251;27;20477;-74
2021/12/07 03:35:46;;;;;;;39.75;10.95;;;;;;;1.14;100.00;100618.72;5125533;27;20023;-73
2021/12/07 03:38:11;;;;;;;42.70;10.75;;;;;;;1.11;100.00;100622.94;5123041;27;20019;-74
2021/12/07 03:40:38;;;;;;;38.67;10.10;;;;;;;1.09;100.00;100630.66;5124441;27;20023;-74
2021/12/07 03:43:05;;;;;;;42.05;10.43;;;;;;;1.01;100.00;100640.78;5123971;27;20019;-75
2021/12/07 03:45:32;;;;;;;38.13;10.43;;;;;;;1.03;100.00;100644.34;5123127;27;20026;-72
2021/12/07 03:47:58;;;;;;;38.15;10.43;;;;;;;1.00;100.00;100652.00;5125092;27;20023;-73
2021/12/07 03:50:24;;;;;;;42.67;10.70;;;;;;;1.00;100.00;100654.63;5122238;27;20031;-69
2021/12/07 03:52:51;;;;;;;41.97;10.40;;;;;;;1.02;100.00;100650.38;5125445;27;20076;-70
2021/12/07 03:55:17;;;;;;;41.33;10.38;;;;;;;1.02;100.00;100647.78;5122169;27;20055;-72
2021/12/07 03:57:43;;;;;;;39.97;10.85;;;;;;;1.05;100.00;100649.63;5124936;27;20447;-72
2021/12/07 04:00:12;;;;;;;40.60;9.77;;;;;;;1.04;100.00;100655.63;5123073;27;20057;-71
2021/12/07 04:02:40;;;;;;;36.20;9.70;;;;;;;1.11;100.00;100655.06;5123982;27;20027;-71
2021/12/07 04:05:12;;;;;;;36.08;9.80;;;;;;;1.08;100.00;100654.03;5123303;27;20019;-69
2021/12/07 04:07:38;;;;;;;40.92;10.18;;;;;;;1.03;100.00;100652.16;5123813;27;20151;-72
2021/12/07 04:10:06;;;;;;;38.63;9.43;;;;;;;1.06;100.00;100650.50;5123768;27;20052;-69
2021/12/07 04:12:31;;;;;;;40.05;10.73;;;;;;;1.02;100.00;100655.59;5122979;27;20019;-70
2021/12/07 04:14:56;;;;;;;37.40;10.68;;;;;;;0.94;100.00;100653.50;5124471;27;20031;-71
2021/12/07 04:17:22;;;;;;;35.15;10.27;;;;;;;0.98;100.00;100669.31;5120577;27;20102;-69
2021/12/07 04:19:47;;;;;;;38.72;10.52;;;;;;;0.93;100.00;100665.59;5125192;27;20114;-72
2021/12/07 04:22:13;;;;;;;39.42;10.18;;;;;;;0.91;100.00;100666.41;5122455;28;20131;-70
2021/12/07 04:24:38;;;;;;;38.58;9.98;;;;;;;0.89;100.00;100662.81;5123764;28;20442;-70
2021/12/07 04:27:05;;;;;;;39.63;10.52;;;;;;;0.90;100.00;100665.47;5123674;28;20434;-69
2021/12/07 04:29:30;;;;;;;37.33;10.20;;;;;;;0.88;100.00;100667.16;5103481;28;20042;-68
2021/12/07 04:31:55;;;;;;;37.78;10.02;;;;;;;0.93;100.00;100670.81;5124481;28;20023;-70
2021/12/07 04:34:21;;;;;;;38.90;9.25;;;;;;;0.94;100.00;100669.13;5121454;28;20023;-68
2021/12/07 04:36:46;;;;;;;37.28;9.52;;;;;;;0.98;100.00;100664.09;5124616;28;20027;-69
2021/12/07 04:39:13;;;;;;;36.97;9.52;;;;;;;1.04;100.00;100659.13;5122426;28;20026;-69
2021/12/07 04:41:38;;;;;;;38.85;9.25;;;;;;;1.04;100.00;100674.75;5123444;28;20038;-69
2021/12/07 04:44:04;;;;;;;36.85;9.00;;;;;;;1.03;100.00;100680.81;5123461;28;20027;-70
2021/12/07 04:46:39;;;;;;;35.78;9.32;;;;;;;1.09;100.00;100692.28;5122513;28;20100;-69
2021/12/07 05:00:13;;;;;;;34.90;8.55;;;;;;;1.17;100.00;100681.34;5080222;28;20032;-69
2021/12/07 05:02:41;;;;;;;35.25;8.57;;;;;;;1.22;100.00;100678.91;5080533;28;20090;-68
2021/12/07 05:05:08;;;;;;;34.13;8.50;;;;;;;1.17;100.00;100703.91;5079868;28;20030;-74
2021/12/07 05:07:38;;;;;;;35.42;8.15;;;;;;;1.11;100.00;100701.06;5079734;28;20091;-74
2021/12/07 05:10:17;;;;;;;35.65;8.38;;;;;;;1.15;100.00;100705.53;5080099;28;20043;-73
2021/12/07 05:15:57;;;;;;;36.70;8.93;;;;;;;1.05;100.00;100714.72;5078276;28;20032;-74
2021/12/07 05:18:36;;;;;;;35.50;9.02;;;;;;;0.98;100.00;100716.16;5080907;28;20071;-75
2021/12/07 05:24:05;;;;;;;32.42;8.45;;;;;;;0.81;100.00;100719.78;5078688;28;20043;-74
2021/12/07 05:40:13;;;;;;;37.80;8.93;;;;;;;0.62;100.00;100752.81;5126966;27;20415;-76
2021/12/07 05:42:40;;;;;;;40.40;11.40;;;;;;;0.55;100.00;100761.19;5125784;27;20049;-74
2021/12/07 05:45:10;;;;;;;42.13;13.23;;;;;;;0.56;100.00;100775.97;5126174;27;20045;-75
2021/12/07 05:47:35;;;;;;;42.80;16.05;;;;;;;0.50;100.00;100775.72;5126117;27;20537;-74
2021/12/07 05:50:01;;;;;;;45.72;17.25;;;;;;;0.44;100.00;100781.53;5125232;27;20047;-74
2021/12/07 05:52:26;;;;;;;44.70;17.33;;;;;;;0.38;100.00;100778.66;5127628;27;20023;-74
2021/12/07 05:54:51;;;;;;;48.20;18.73;;;;;;;0.34;100.00;100781.94;5124115;27;20072;-76
2021/12/07 05:57:17;;;;;;;46.90;20.50;;;;;;;0.31;100.00;100792.22;5127378;27;20593;-73
2021/12/07 05:59:42;;;;;;;51.10;22.33;;;;;;;0.28;100.00;100795.56;5125084;27;20052;-72
2021/12/07 06:02:08;;;;;;;52.33;22.38;;;;;;;0.29;100.00;100799.03;5126065;27;20012;-73
2021/12/07 06:04:34;;;;;;;50.88;22.67;;;;;;;0.27;100.00;100796.38;5126215;27;20027;-70
2021/12/07 06:06:59;;;;;;;51.40;23.30;;;;;;;0.22;100.00;100792.69;5125028;27;20028;-76
2021/12/07 06:09:26;;;;;;;57.95;23.85;;;;;;;0.18;100.00;100795.97;5127486;27;20370;-69
2021/12/07 06:11:51;;;;;;;56.08;24.60;;;;;;;0.19;100.00;100792.56;5124237;27;20595;-69
2021/12/07 06:14:19;;;;;;;54.47;24.13;;;;;;;0.16;100.00;100800.19;5127161;27;20106;-69
2021/12/07 06:16:46;;;;;;;61.65;25.73;;;;;;;0.12;100.00;100799.16;5124311;27;20065;-68
2021/12/07 06:19:11;;;;;;;58.47;26.08;;;;;;;0.12;100.00;100790.50;5126527;27;20023;-69
2021/12/07 06:21:37;;;;;;;66.60;26.90;;;;;;;0.10;100.00;100781.72;5125271;27;20393;-69
2021/12/07 06:24:02;;;;;;;61.05;26.05;;;;;;;0.06;100.00;100785.00;5124748;27;20031;-69
2021/12/07 06:26:28;;;;;;;59.58;25.83;;;;;;;0.12;100.00;100793.09;5126818;27;20076;-70
2021/12/07 06:28:53;;;;;;;65.63;26.95;;;;;;;0.10;100.00;100795.63;5123466;27;20096;-71
2021/12/07 06:31:18;;;;;;;63.90;26.65;;;;;;;0.09;100.00;100804.22;5126831;27;20534;-70
2021/12/07 06:33:44;;;;;;;61.00;26.90;;;;;;;0.09;100.00;100811.16;5124031;27;20451;-70
2021/12/07 06:36:09;;;;;;;68.25;28.20;;;;;;;0.15;100.00;100806.22;5125215;27;20114;-70
2021/12/07 06:38:35;;;;;;;60.65;27.83;;;;;;;0.13;100.00;100807.84;5115935;27;20023;-69
2021/12/07 06:41:03;;;;;;;64.95;28.88;;;;;;;0.06;100.00;100811.91;5116468;27;20381;-81
2021/12/07 06:43:29;;;;;;;65.93;28.05;;;;;;;0.09;100.00;100813.75;5115706;27;20059;-75
2021/12/07 06:45:54;;;;;;;69.43;29.73;;;;;;;0.04;100.00;100812.63;5114643;27;20062;-73
2021/12/07 06:48:20;;;;;;;66.70;30.50;;;;;;;0.02;100.00;100807.38;5115313;27;20016;-76
2021/12/07 06:50:46;;;;;;;62.15;30.27;;;;;;;0.05;100.00;100806.63;5115160;27;20081;-78
2021/12/07 06:53:11;;;;;;;65.35;29.48;;;;;;;0.06;100.00;100806.69;5119817;27;20517;-76
2021/12/07 06:55:37;;;;;;;70.22;30.95;;;;;;;0.06;100.00;100810.97;5116027;27;20047;-79
2021/12/07 06:58:03;;;;;;;67.13;30.75;;;;;;;0.03;100.00;100808.25;5116941;27;20033;-80
2021/12/07 07:00:28;;;;;;;70.65;30.77;;;;;;;0.08;100.00;100811.97;5114439;27;20036;-81
2021/12/07 07:02:54;;;;;;;64.97;31.77;;;;;;;0.03;100.00;100808.25;5111970;27;20020;-79
2021/12/07 07:05:20;;;;;;;71.70;31.65;;;;;;;0.05;100.00;100814.44;5116438;27;20075;-81
2021/12/07 07:07:45;;;;;;;72.63;31.77;;;;;;;0.04;100.00;100821.31;5118929;27;20545;-80
2021/12/07 07:10:14;;;;;;;67.35;32.00;;;;;;;0.03;100.00;100826.44;5117273;27;20481;-82
2021/12/07 07:12:40;;;;;;;62.97;31.58;;;;;;;0.04;100.00;100821.31;5116446;27;20039;-78
2021/12/07 07:15:07;;;;;;;68.40;31.50;;;;;;;0.05;100.00;100823.09;5117375;27;20027;-83
2021/12/07 07:17:32;;;;;;;66.90;31.08;;;;;;;0.04;100.00;100823.91;5115590;27;20098;-81
2021/12/07 07:19:58;;;;;;;71.93;31.95;;;;;;;0.03;100.00;100816.94;5114201;27;20055;-78
2021/12/07 07:22:23;;;;;;;68.32;29.95;;;;;;;0.11;100.00;100817.31;5116904;27;20032;-74
2021/12/07 07:24:49;;;;;;;71.03;31.23;;;;;;;0.05;100.00;100819.63;5117314;27;20049;-75
2021/12/07 07:27:14;;;;;;;64.88;32.05;;;;;;;0.06;100.00;100823.97;5113781;27;20403;-74
2021/12/07 07:29:39;;;;;;;68.38;31.75;;;;;;;0.09;100.00;100827.63;5116646;27;20023;-76
2021/12/07 07:32:05;;;;;;;66.65;31.77;;;;;;;0.12;100.00;100832.97;5114576;27;20032;-74
2021/12/07 07:34:31;;;;;;;76.55;33.03;;;;;;;0.23;100.00;100842.97;5118004;27;20033;-72
2021/12/07 07:36:56;;;;;;;73.45;33.13;;;;;;;0.24;100.00;100842.16;5119362;27;20098;-76
2021/12/07 07:39:21;;;;;;;68.65;33.30;;;;;;;0.30;100.00;100830.31;5119691;27;20023;-77
2021/12/07 07:41:47;;;;;;;72.07;33.47;;;;;;;0.34;100.00;100840.03;5116780;27;20027;-76
2021/12/07 07:44:13;;;;;;;70.20;32.42;;;;;;;0.36;100.00;100841.84;5117404;27;20035;-78
2021/12/07 07:46:38;;;;;;;69.97;32.35;;;;;;;0.37;100.00;100841.03;5118768;27;20378;-75
2021/12/07 07:49:04;;;;;;;69.38;32.33;;;;;;;0.37;100.00;100839.28;5117559;27;20034;-75
2021/12/07 07:51:33;;;;;;;63.70;32.25;;;;;;;0.42;100.00;100842.09;5097548;28;20032;-69
2021/12/07 07:53:59;;;;;;;65.47;31.35;;;;;;;0.47;100.00;100831.09;5118223;27;20390;-69
2021/12/07 07:56:26;;;;;;;71.50;32.38;;;;;;;0.48;100.00;100835.47;5119411;27;20082;-69
2021/12/07 07:58:53;;;;;;;66.35;31.83;;;;;;;0.47;100.00;100825.00;5117900;27;20035;-68
2021/12/07 08:01:19;;;;;;;65.68;31.38;;;;;;;0.47;100.00;100820.69;5117436;27;20020;-70
2021/12/07 08:03:44;;;;;;;67.32;30.88;;;;;;;0.48;100.00;100821.56;5111330;28;20375;-69
2021/12/07 08:06:09;;;;;;;61.65;30.27;;;;;;;0.47;100.00;100825.00;5113275;27;20035;-71
2021/12/07 08:08:35;;;;;;;64.95;30.10;;;;;;;0.51;100.00;100822.59;5112444;27;20015;-70
2021/12/07 08:11:01;;;;;;;62.28;30.05;;;;;;;0.59;100.00;100825.53;5118948;27;20027;-70
2021/12/07 08:13:26;;;;;;;70.53;31.35;;;;;;;0.66;100.00;100826.72;5117137;27;20394;-70
2021/12/07 08:15:52;;;;;;;61.97;30.90;;;;;;;0.75;100.00;100834.03;5114890;28;20024;-72
2021/12/07 08:18:17;;;;;;;62.20;30.98;;;;;;;0.77;100.00;100840.19;5116842;27;20494;-70
2021/12/07 08:20:43;;;;;;;63.00;30.83;;;;;;;0.82;100.00;100849.09;5099455;28;20149;-69
2021/12/07 08:23:10;;;;;;;58.10;28.63;;;;;;;0.82;100.00;100841.28;5114347;28;20032;-71
2021/12/07 08:25:39;;;;;;;62.78;26.75;;;;;;;0.79;100.00;100855.06;5110232;28;20036;-69
2021/12/07 08:28:07;;;;;;;55.03;26.73;;;;;;;0.75;100.00;100862.66;5111635;28;20016;-69
2021/12/07 08:30:34;;;;;;;52.58;23.48;;;;;;;0.73;100.00;100870.41;5114784;28;20034;-71
2021/12/07 08:32:59;;;;;;;50.13;22.55;;;;;;;0.69;100.00;100864.16;5111220;28;20023;-68
2021/12/07 08:35:25;;;;;;;48.15;21.38;;;;;;;0.71;100.00;100859.00;5117350;28;20501;-69
2021/12/07 08:37:50;;;;;;;46.85;20.90;;;;;;;0.66;100.00;100857.94;5114667;28;20019;-74
2021/12/07 08:40:19;;;;;;;46.17;20.30;;;;;;;0.68;100.00;100857.19;5114427;28;20019;-72
2021/12/07 08:42:45;;;;;;;45.55;19.30;;;;;;;0.69;100.00;100864.16;5113857;28;20024;-73
2021/12/07 08:45:11;;;;;;;44.60;18.80;;;;;;;0.67;100.00;100855.41;5114263;28;20467;-68
2021/12/07 08:47:36;;;;;;;41.40;17.17;;;;;;;0.70;100.00;100875.47;5114939;28;20038;-69
2021/12/07 08:50:06;;;;;;;42.83;17.70;;;;;;;0.76;100.00;100867.03;5116820;28;20024;-68
2021/12/07 08:52:31;;;;;;;40.45;16.63;;;;;;;0.81;100.00;100855.13;5110388;28;20055;-69
2021/12/07 09:00:26;;;;;;;40.05;15.63;;;;;;;1.13;100.00;100835.66;5109694;28;20084;-69
2021/12/07 09:02:51;;;;;;;35.67;14.68;;;;;;;1.19;100.00;100829.84;5111750;28;20098;-71
2021/12/07 09:05:17;;;;;;;35.83;14.32;;;;;;;1.28;100.00;100825.03;5118712;27;20489;-74
2021/12/07 09:07:44;;;;;;;36.30;14.50;;;;;;;1.42;100.00;100824.72;5120059;27;20042;-73
2021/12/07 09:10:09;;;;;;;32.75;12.60;;;;;;;1.47;100.00;100817.94;5121915;27;20046;-71
2021/12/07 09:12:34;;;;;;;32.75;13.02;;;;;;;1.52;100.00;100822.53;5119975;27;20467;-70
2021/12/07 09:15:00;;;;;;;34.33;12.10;;;;;;;1.54;100.00;100818.28;5122946;27;20035;-70
2021/12/07 09:17:25;;;;;;;32.47;12.10;;;;;;;1.64;100.00;100814.31;5122943;27;20028;-71
2021/12/07 09:19:52;;;;;;;31.35;11.90;;;;;;;1.68;100.00;100818.81;5120237;27;20071;-70
2021/12/07 09:22:18;;;;;;;33.47;11.52;;;;;;;1.77;100.00;100817.44;5128461;27;20069;-77
2021/12/07 09:24:43;;;;;;;32.90;10.98;;;;;;;1.80;100.00;100836.66;5119897;27;20048;-77
2021/12/07 09:27:09;;;;;;;31.92;11.52;;;;;;;1.81;100.00;100829.75;5120527;27;20033;-76
2021/12/07 09:29:34;;;;;;;32.83;11.38;;;;;;;1.77;100.00;100833.06;5098084;27;20025;-69
2021/12/07 09:32:01;;;;;;;29.58;10.38;;;;;;;1.81;100.00;100828.03;5120197;27;20024;-69
2021/12/07 09:34:26;;;;;;;30.90;10.35;;;;;;;1.97;100.00;100819.09;5117321;27;20062;-70
2021/12/07 09:36:52;;;;;;;31.98;11.00;;;;;;;2.06;100.00;100826.38;5121639;27;20478;-70
2021/12/07 09:39:18;;;;;;;29.90;10.40;;;;;;;2.13;100.00;100823.19;5127601;27;20016;-70
2021/12/07 09:41:44;;;;;;;28.23;9.88;;;;;;;2.26;100.00;100819.31;5119978;27;20023;-69
2021/12/07 09:44:11;;;;;;;29.45;10.13;;;;;;;2.26;100.00;100812.38;5121861;27;20435;-69
2021/12/07 09:46:39;;;;;;;30.10;10.32;;;;;;;2.38;100.00;100822.38;5120108;27;20107;-69
2021/12/07 09:49:06;;;;;;;29.00;9.38;;;;;;;2.43;100.00;100828.66;5120159;27;20031;-70
2021/12/07 09:51:32;;;;;;;26.70;9.52;;;;;;;2.47;100.00;100828.78;5117750;27;20115;-69
2021/12/07 09:53:58;;;;;;;26.70;9.25;;;;;;;2.57;100.00;100829.16;5119494;27;20057;-69
2021/12/07 09:56:25;;;;;;;27.52;9.05;;;;;;;2.66;100.00;100828.59;5118110;27;20023;-69
2021/12/07 09:58:54;;;;;;;29.55;9.30;;;;;;;2.75;100.00;100828.97;5117666;27;20016;-70
2021/12/07 10:01:20;;;;;;;25.58;8.25;;;;;;;2.73;100.00;100819.28;5101750;27;20055;-69
2021/12/07 10:03:46;;;;;;;27.77;8.75;;;;;;;2.75;100.00;100817.59;5117555;27;20028;-69
2021/12/07 10:06:13;;;;;;;29.50;8.70;;;;;;;2.81;100.00;100816.94;5117049;27;20080;-73
2021/12/07 10:08:39;;;;;;;28.15;8.85;;;;;;;2.92;100.00;100815.59;5117108;27;20024;-68
2021/12/07 10:11:09;;;;;;;25.20;8.10;;;;;;;3.09;100.00;100818.81;5114786;27;20107;-69
2021/12/07 10:13:35;;;;;;;28.83;8.68;;;;;;;3.33;100.00;100813.50;5114596;27;20054;-69
2021/12/07 10:16:04;;;;;;;28.50;8.20;;;;;;;3.43;100.00;100810.34;5114770;27;20542;-70
2021/12/07 10:18:33;;;;;;;27.63;8.10;;;;;;;3.52;100.00;100803.66;5118980;27;20038;-68
2021/12/07 10:21:03;;;;;;;30.35;8.48;;;;;;;3.52;100.00;100801.03;5116491;27;20023;-68
2021/12/07 10:23:36;;;;;;;27.63;7.88;;;;;;;3.86;100.00;100802.09;5118133;27;20024;-68
2021/12/07 10:26:23;;;;;;;26.08;8.35;;;;;;;4.12;100.00;100795.03;5115878;27;20081;-69
2021/12/07 10:28:49;;;;;;;28.88;8.05;;;;;;;4.40;100.00;100793.22;5118139;27;20020;-69
2021/12/07 10:31:48;;;;;;;24.85;6.85;;;;;;;4.75;100.00;100799.47;5115731;27;20039;-69
2021/12/07 10:34:21;;;;;;;26.95;7.43;;;;;;;5.10;100.00;100786.44;5032137;28;20048;-70
2021/12/07 10:36:49;;;;;;;25.42;7.50;;;;;;;5.47;100.00;100787.34;5032775;28;20029;-70
2021/12/07 10:39:20;;;;;;;25.02;6.60;;;;;;;6.04;100.00;100793.03;5040173;28;20073;-69
2021/12/07 10:41:50;;;;;;;26.33;7.18;;;;;;;6.30;100.00;100782.22;5038668;28;20124;-69
2021/12/07 10:44:23;;;;;;;23.63;6.60;;;;;;;6.73;100.00;100772.59;5043474;28;20038;-70
2021/12/07 10:46:56;;;;;;;23.63;6.78;;;;;;;6.90;97.85;100765.91;5047158;28;20033;-69
2021/12/07 10:49:44;;;;;;;25.70;6.53;;;;;;;7.12;98.18;100768.88;5045421;28;20053;-69
2021/12/07 10:52:13;;;;;;;23.13;6.32;;;;;;;7.53;96.13;100762.53;5051202;28;20101;-70
2021/12/07 10:54:38;;;;;;;23.52;6.10;;;;;;;7.94;90.24;100763.16;5053937;28;20041;-69
2021/12/07 10:57:06;;;;;;;23.40;6.15;;;;;;;7.83;91.28;100755.13;5054353;28;20113;-70
2021/12/07 10:59:33;;;;;;;23.90;6.13;;;;;;;8.09;86.63;100744.03;5045057;28;20037;-69
2021/12/07 11:02:10;;;;;;;25.92;6.25;;;;;;;8.45;86.18;100744.50;5033684;28;20496;-69
2021/12/07 11:04:36;;;;;;;21.33;5.85;;;;;;;8.58;81.94;100734.97;5041486;28;20102;-71
2021/12/07 11:07:16;;;;;;;25.40;6.28;;;;;;;8.55;84.30;100720.03;5033085;28;20061;-69
2021/12/07 11:10:08;;;;;;;25.17;6.28;;;;;;;9.00;79.59;100696.72;5043162;28;20043;-69
2021/12/07 11:15:32;;;;;;;23.77;6.38;;;;;;;9.41;78.23;100704.09;5049982;28;20067;-69
2021/12/07 11:18:07;;;;;;;25.65;6.63;;;;;;;9.22;74.05;100697.78;5052346;28;20116;-71
2021/12/07 11:20:33;;;;;;;24.48;6.60;;;;;;;9.13;76.77;100693.34;5056440;28;20048;-71
2021/12/07 11:23:06;;;;;;;24.60;6.55;;;;;;;9.55;75.58;100696.25;5055842;28;20044;-70
2021/12/07 11:31:32;;;;;;;26.35;7.28;;;;;;;9.72;73.65;100683.16;4975308;28;20097;-72
2021/12/07 11:34:08;;;;;;;23.33;7.00;;;;;;;9.33;74.44;100692.59;4960593;28;20118;-71
2021/12/07 11:37:07;;;;;;;26.67;7.20;;;;;;;9.48;70.92;100697.06;4959709;28;20534;-69
2021/12/07 11:39:54;;;;;;;22.35;6.97;;;;;;;9.75;69.31;100691.09;4976139;28;20039;-73
2021/12/07 11:42:36;;;;;;;24.48;7.30;;;;;;;9.33;70.01;100688.19;4975458;28;20174;-75
2021/12/07 11:45:01;;;;;;;24.98;8.02;;;;;;;9.12;70.09;100674.88;4961350;28;20031;-69
2021/12/07 11:47:32;;;;;;;25.67;7.30;;;;;;;9.00;68.32;100676.53;4963927;28;20502;-69
2021/12/07 11:50:02;;;;;;;26.90;7.80;;;;;;;9.14;71.68;100673.09;4960957;28;20031;-69
2021/12/07 11:52:28;;;;;;;24.25;6.93;;;;;;;9.61;70.70;100667.28;4996189;28;20336;-71
2021/12/07 11:54:53;;;;;;;24.40;6.30;;;;;;;9.51;67.97;100668.06;5034152;28;20030;-69
2021/12/07 11:57:20;;;;;;;25.00;6.80;;;;;;;9.44;69.51;100661.88;5017226;28;20029;-71
2021/12/07 11:59:48;;;;;;;24.35;6.72;;;;;;;10.00;69.15;100663.03;5037093;28;20030;-70
2021/12/07 12:02:15;;;;;;;25.27;6.70;;;;;;;10.16;66.64;100657.81;5035225;28;20155;-70
2021/12/07 12:04:42;;;;;;;23.95;6.30;;;;;;;10.29;66.98;100652.59;5035239;28;20034;-69
2021/12/07 12:07:09;;;;;;;24.48;6.28;;;;;;;10.36;65.14;100650.84;5043145;28;20043;-69
2021/12/07 12:09:37;;;;;;;25.52;6.60;;;;;;;10.51;66.13;100655.28;5063700;28;20025;-69
2021/12/07 12:12:34;;;;;;;22.52;5.82;;;;;;;10.63;67.65;100635.94;5060900;28;20040;-69
2021/12/07 12:15:46;;;;;;;21.42;5.57;;;;;;;10.78;66.37;100633.28;5019073;28;20041;-68
2021/12/07 12:18:26;;;;;;;24.40;7.10;;;;;;;10.33;63.59;100632.31;4971556;28;20047;-69
2021/12/07 12:21:01;;;;;;;22.25;5.88;;;;;;;10.23;63.65;100628.75;4971727;28;20037;-69
2021/12/07 12:23:45;;;;;;;22.20;6.18;;;;;;;10.07;63.77;100619.03;4971664;28;20043;-69
2021/12/07 12:26:12;;;;;;;21.60;5.68;;;;;;;10.55;62.58;100609.47;4969074;28;20417;-69
2021/12/07 12:28:47;;;;;;;20.92;5.10;;;;;;;10.20;61.73;100614.69;4971731;28;20047;-69
2021/12/07 12:31:13;;;;;;;22.55;5.22;;;;;;;9.74;63.08;100600.47;4971515;28;20045;-69
2021/12/07 12:33:47;;;;;;;21.38;5.10;;;;;;;9.69;64.02;100596.91;4971465;28;20502;-69
2021/12/07 12:36:13;;;;;;;23.42;5.03;;;;;;;9.64;63.25;100587.19;4971560;28;20035;-69
2021/12/07 12:38:46;;;;;;;21.05;4.75;;;;;;;9.40;64.74;100592.38;4973971;28;20487;-69
2021/12/07 12:41:14;;;;;;;22.45;5.25;;;;;;;9.38;66.67;100594.13;4975326;28;20081;-69
2021/12/07 12:43:47;;;;;;;23.13;4.80;;;;;;;9.72;65.90;100588.13;4975257;28;20583;-69
2021/12/07 12:46:17;;;;;;;21.08;4.80;;;;;;;10.09;65.90;100580.31;4975321;28;20038;-69
2021/12/07 12:48:48;;;;;;;21.83;4.97;;;;;;;10.03;64.31;100560.06;4975688;28;20570;-69
2021/12/07 12:51:15;;;;;;;22.00;4.50;;;;;;;9.83;63.85;100549.44;4991403;28;20147;-69
2021/12/07 12:53:42;;;;;;;23.92;4.80;;;;;;;9.60;64.90;100541.47;5024957;28;20153;-69
2021/12/07 12:56:10;;;;;;;20.63;4.13;;;;;;;9.48;65.07;100531.75;5067434;28;20073;-69
2021/12/07 12:58:45;;;;;;;21.30;4.63;;;;;;;9.30;65.42;100514.06;5064605;28;20036;-70
2021/12/07 13:01:25;;;;;;;23.40;4.70;;;;;;;9.06;68.21;100513.06;5066846;28;20463;-69
2021/12/07 13:04:09;;;;;;;21.75;4.40;;;;;;;9.24;68.08;100503.50;5066567;28;20487;-67